Time;durP1;ratioP1;P1;durP2;ratioP2;P2;SDS_P1;SDS_P2;PMS_P1;PMS_P2;Temp;Humidity;BMP_temperature;BMP_pressure;BME280_temperature;BME280_humidity;BME280_pressure;Samples;Min_cycle;Max_cycle;Signal;HPM_P1;HPM_P2
2021/12/14 00:01:26;;;;;;;21.83;11.93;;;;;;;7.27;100.00;99940.38;5048277;28;20025;-67
2021/12/14 00:03:56;;;;;;;20.85;11.55;;;;;;;7.33;100.00;99936.97;5048327;28;20032;-67
2021/12/14 00:06:23;;;;;;;27.25;15.70;;;;;;;7.30;100.00;99929.97;5048093;28;20021;-67
2021/12/14 00:08:56;;;;;;;26.20;14.02;;;;;;;7.29;100.00;99928.22;5048149;28;20079;-67
2021/12/14 00:14:27;;;;;;;22.10;12.75;;;;;;;7.18;100.00;99931.53;5048223;28;20033;-67
2021/12/14 00:16:57;;;;;;;25.73;13.73;;;;;;;7.17;100.00;99924.50;5048241;28;20337;-67
2021/12/14 00:19:26;;;;;;;33.70;16.67;;;;;;;7.22;100.00;99931.59;5047536;28;20097;-67
2021/12/14 00:21:54;;;;;;;36.33;19.33;;;;;;;7.16;100.00;99926.28;5047999;28;20033;-67
2021/12/14 00:24:25;;;;;;;33.10;17.58;;;;;;;7.15;100.00;99936.72;5041306;28;20029;-67
2021/12/14 00:26:59;;;;;;;28.90;15.13;;;;;;;7.14;100.00;99927.09;5028323;28;20129;-67
2021/12/14 00:29:29;;;;;;;30.65;17.55;;;;;;;7.11;100.00;99930.53;5028471;28;20049;-67
2021/12/14 00:32:01;;;;;;;31.20;16.88;;;;;;;7.09;100.00;99929.63;5033006;28;20198;-67
2021/12/14 00:34:47;;;;;;;34.65;17.75;;;;;;;7.08;100.00;99933.13;5048037;28;20036;-67
2021/12/14 00:37:19;;;;;;;25.33;13.48;;;;;;;7.12;100.00;99926.19;5047869;28;20076;-67
2021/12/14 00:39:46;;;;;;;25.42;13.77;;;;;;;7.04;100.00;99926.09;5047858;28;20021;-67
2021/12/14 00:42:12;;;;;;;30.60;15.23;;;;;;;7.00;100.00;99928.63;5047805;28;20029;-67
2021/12/14 00:44:38;;;;;;;28.15;14.23;;;;;;;7.00;100.00;99924.28;5048044;28;20029;-67
2021/12/14 00:47:04;;;;;;;29.83;13.85;;;;;;;7.08;100.00;99927.88;5047845;28;20026;-67
2021/12/14 00:49:31;;;;;;;27.50;13.73;;;;;;;7.04;100.00;99926.09;5047848;28;20025;-67
2021/12/14 00:51:57;;;;;;;32.10;15.45;;;;;;;7.06;100.00;99933.97;5048152;28;20025;-67
2021/12/14 00:54:23;;;;;;;30.33;14.63;;;;;;;6.94;100.00;99926.81;5048295;28;20025;-67
2021/12/14 00:56:50;;;;;;;36.03;16.52;;;;;;;6.92;100.00;99918.03;5051645;28;20030;-67
2021/12/14 00:59:17;;;;;;;41.08;18.35;;;;;;;6.97;100.00;99919.00;5044664;28;20026;-67
2021/12/14 01:01:47;;;;;;;39.47;17.58;;;;;;;6.92;100.00;99906.66;5031979;28;20022;-66
2021/12/14 01:04:36;;;;;;;39.85;18.20;;;;;;;6.93;100.00;99906.69;5031657;28;20052;-67
2021/12/14 01:07:03;;;;;;;40.85;16.17;;;;;;;6.92;100.00;99910.19;5031705;28;20026;-67
2021/12/14 01:09:33;;;;;;;37.13;15.48;;;;;;;7.02;100.00;99912.06;5030605;28;20017;-67
2021/12/14 01:12:07;;;;;;;38.67;16.85;;;;;;;6.86;100.00;99907.47;5051301;28;20063;-67
2021/12/14 01:14:46;;;;;;;36.38;17.02;;;;;;;6.84;100.00;99913.53;5042397;28;20022;-67
2021/12/14 01:17:27;;;;;;;36.05;14.63;;;;;;;6.82;100.00;99910.91;5031173;28;20337;-67
2021/12/14 01:19:59;;;;;;;46.65;16.67;;;;;;;6.86;100.00;99899.63;5031606;28;20046;-67
2021/12/14 01:25:24;;;;;;;36.00;15.07;;;;;;;6.80;100.00;99914.38;5031486;28;20040;-67
2021/12/14 01:27:54;;;;;;;40.35;16.40;;;;;;;6.78;100.00;99919.56;5031489;28;20018;-67
2021/12/14 01:30:47;;;;;;;42.20;15.65;;;;;;;6.79;100.00;99910.84;5031334;28;20036;-67
2021/12/14 01:33:14;;;;;;;42.88;16.08;;;;;;;6.79;100.00;99915.19;5031146;28;20336;-67
2021/12/14 01:35:44;;;;;;;37.20;14.95;;;;;;;6.82;100.00;99916.13;5030714;28;20045;-67
2021/12/14 01:39:09;;;;;;;42.53;14.40;;;;;;;6.74;100.00;99915.13;5030524;28;20317;-67
2021/12/14 01:41:10;;;;;;;43.63;16.20;;;;;;;6.71;100.00;99917.72;5030134;28;20041;-67
2021/12/14 01:43:42;;;;;;;39.97;16.30;;;;;;;6.63;100.00;99906.22;5031196;28;20036;-67
2021/12/14 01:46:18;;;;;;;49.15;16.65;;;;;;;6.49;100.00;99907.75;5030546;28;20026;-67
2021/12/14 01:48:43;;;;;;;39.42;13.05;;;;;;;6.45;100.00;99916.38;5030891;28;20025;-66
2021/12/14 01:51:10;;;;;;;43.92;14.82;;;;;;;6.50;100.00;99914.72;5031160;28;20064;-66
2021/12/14 01:53:40;;;;;;;46.15;15.38;;;;;;;6.46;100.00;99923.38;5030688;28;20022;-66
2021/12/14 01:56:10;;;;;;;36.25;15.70;;;;;;;6.54;100.00;99929.63;5030641;28;20060;-66
2021/12/14 01:58:42;;;;;;;47.80;16.77;;;;;;;6.57;100.00;99932.28;5030227;28;20025;-66
2021/12/14 02:01:14;;;;;;;50.50;16.77;;;;;;;6.52;100.00;99939.19;5030661;28;20022;-66
2021/12/14 02:03:45;;;;;;;45.97;15.83;;;;;;;6.40;100.00;99931.13;5031992;28;20030;-66
2021/12/14 02:06:19;;;;;;;51.88;17.88;;;;;;;6.42;100.00;99934.63;5049969;28;20318;-66
2021/12/14 02:08:44;;;;;;;44.90;18.27;;;;;;;6.50;100.00;99930.41;5050436;28;20021;-66
2021/12/14 02:11:11;;;;;;;48.05;18.58;;;;;;;6.52;100.00;99923.50;5050068;28;20348;-67
2021/12/14 02:13:42;;;;;;;35.55;13.02;;;;;;;6.41;100.00;99925.91;5050040;28;20049;-67
2021/12/14 02:16:10;;;;;;;36.47;12.65;;;;;;;6.37;100.00;99923.22;5050183;28;20060;-67
2021/12/14 02:18:37;;;;;;;36.38;14.02;;;;;;;6.31;100.00;99917.88;5049396;28;20041;-67
2021/12/14 02:21:09;;;;;;;36.47;13.50;;;;;;;6.30;100.00;99921.34;5049771;28;20271;-67
2021/12/14 02:23:54;;;;;;;44.20;15.07;;;;;;;6.25;100.00;99923.00;5049703;28;20343;-67
2021/12/14 02:26:25;;;;;;;41.38;15.45;;;;;;;6.33;100.00;99939.72;5050405;28;20033;-67
2021/12/14 02:28:56;;;;;;;39.70;14.60;;;;;;;6.34;100.00;99949.31;5048336;28;20017;-67
2021/12/14 02:31:24;;;;;;;39.17;14.27;;;;;;;6.39;100.00;99950.25;5049861;28;20025;-67
2021/12/14 02:33:52;;;;;;;35.72;14.40;;;;;;;6.41;100.00;99961.63;5049693;28;20036;-67
2021/12/14 02:36:32;;;;;;;39.10;14.88;;;;;;;6.44;100.00;99965.22;5050087;28;20036;-66
2021/12/14 02:39:11;;;;;;;38.30;16.10;;;;;;;6.40;100.00;99970.34;5035639;28;20033;-66
2021/12/14 02:41:46;;;;;;;50.45;16.38;;;;;;;6.35;100.00;99964.13;5030366;28;20033;-66
2021/12/14 02:44:14;;;;;;;42.92;16.05;;;;;;;6.38;100.00;99972.03;5030322;28;20044;-66
2021/12/14 02:46:43;;;;;;;32.92;12.90;;;;;;;6.40;100.00;99975.56;5029786;28;20026;-66
2021/12/14 02:49:12;;;;;;;34.22;13.30;;;;;;;6.36;100.00;99976.38;5038410;28;20025;-66
2021/12/14 02:51:44;;;;;;;33.67;13.90;;;;;;;6.36;100.00;99973.78;5049414;28;20049;-66
2021/12/14 02:54:19;;;;;;;35.60;14.73;;;;;;;6.45;100.00;99973.91;5049127;28;20044;-66
2021/12/14 02:56:50;;;;;;;45.15;15.15;;;;;;;6.35;100.00;99961.53;5049832;28;20048;-66
2021/12/14 02:59:19;;;;;;;45.63;14.48;;;;;;;6.34;100.00;99971.13;5049487;28;20072;-66
2021/12/14 03:01:48;;;;;;;41.60;14.63;;;;;;;6.38;100.00;99961.59;5049475;28;20027;-66
2021/12/14 03:04:14;;;;;;;44.60;15.02;;;;;;;6.38;100.00;99956.34;5049276;28;20032;-66
2021/12/14 03:06:46;;;;;;;48.72;15.82;;;;;;;6.35;100.00;99948.44;5049802;28;20043;-66
2021/12/14 03:09:36;;;;;;;50.13;16.63;;;;;;;6.40;100.00;99949.44;5049581;28;20021;-66
2021/12/14 03:12:10;;;;;;;44.45;15.68;;;;;;;6.27;100.00;99937.00;5049245;28;20035;-66
2021/12/14 03:14:37;;;;;;;55.78;16.38;;;;;;;6.14;100.00;99929.78;5049276;28;20032;-66
2021/12/14 03:17:03;;;;;;;50.45;16.27;;;;;;;6.09;100.00;99934.03;5048911;28;20077;-67
2021/12/14 03:19:29;;;;;;;48.05;15.90;;;;;;;6.14;100.00;99924.56;5048298;28;20056;-67
2021/12/14 03:21:54;;;;;;;42.63;14.80;;;;;;;6.18;100.00;99926.34;5049157;28;20304;-67
2021/12/14 03:24:21;;;;;;;30.02;12.23;;;;;;;6.21;100.00;99915.97;5048901;28;20128;-67
2021/12/14 03:26:51;;;;;;;32.25;13.25;;;;;;;6.16;100.00;99912.38;5049277;28;20028;-67
2021/12/14 03:29:21;;;;;;;35.70;14.63;;;;;;;6.11;100.00;99909.66;5048757;28;20080;-67
2021/12/14 03:31:50;;;;;;;36.20;13.43;;;;;;;6.14;100.00;99919.31;5049264;28;20033;-67
2021/12/14 03:34:22;;;;;;;29.38;12.10;;;;;;;6.26;100.00;99924.75;5048885;28;20317;-67
2021/12/14 03:36:58;;;;;;;34.90;13.52;;;;;;;6.16;100.00;99926.31;5049250;28;20049;-67
2021/12/14 03:39:30;;;;;;;38.70;13.98;;;;;;;6.06;100.00;99916.56;5049014;28;20029;-67
2021/12/14 03:41:58;;;;;;;;;;;;;;;6.05;100.00;99903.47;5049690;28;20041;-67
2021/12/14 03:44:31;;;;;;;30.67;12.45;;;;;;;6.00;100.00;99910.31;5048027;28;19909;-67
2021/12/14 03:47:08;;;;;;;31.30;12.57;;;;;;;6.10;100.00;99913.13;5048958;28;20371;-67
2021/12/14 03:49:40;;;;;;;39.03;12.38;;;;;;;6.00;100.00;99932.13;5049172;28;20025;-67
2021/12/14 03:52:09;;;;;;;33.78;12.80;;;;;;;6.05;100.00;99929.59;5043609;28;20048;-67
2021/12/14 03:54:35;;;;;;;32.33;13.23;;;;;;;6.03;100.00;99957.41;5029049;28;20025;-67
2021/12/14 03:57:00;;;;;;;43.78;12.90;;;;;;;5.96;100.00;99955.53;5028715;28;20025;-67
2021/12/14 03:59:28;;;;;;;37.88;13.88;;;;;;;5.92;100.00;99640.19;5028570;28;20351;-67
2021/12/14 04:01:54;;;;;;;40.10;11.80;;;;;;;5.82;100.00;99690.53;5029064;28;20214;-67
2021/12/14 04:04:31;;;;;;;35.03;11.90;;;;;;;5.83;100.00;99770.66;5028693;28;20026;-67
2021/12/14 04:06:59;;;;;;;33.65;13.88;;;;;;;5.86;100.00;99802.06;5028509;28;20026;-67
2021/12/14 04:09:27;;;;;;;35.85;13.88;;;;;;;5.96;100.00;99814.44;5028798;28;20018;-67
2021/12/14 04:11:53;;;;;;;30.85;12.18;;;;;;;5.89;100.00;99817.81;5028622;28;20341;-67
2021/12/14 04:14:20;;;;;;;30.02;13.23;;;;;;;5.89;100.00;99812.56;5028679;28;20030;-67
2021/12/14 04:16:50;;;;;;;45.25;12.90;;;;;;;5.84;100.00;99804.66;5028702;28;20022;-67
2021/12/14 04:19:24;;;;;;;37.63;12.68;;;;;;;5.86;100.00;99799.44;5028754;28;20037;-67
2021/12/14 04:21:52;;;;;;;45.28;13.13;;;;;;;5.67;100.00;99792.09;5028378;28;20026;-67
2021/12/14 04:24:24;;;;;;;41.40;13.27;;;;;;;5.72;100.00;99803.50;5028893;28;20033;-67
2021/12/14 04:26:51;;;;;;;41.78;13.20;;;;;;;5.72;100.00;99825.28;5028414;28;20085;-67
2021/12/14 04:29:18;;;;;;;49.08;15.55;;;;;;;5.76;100.00;99829.69;5028409;28;20341;-67
2021/12/14 04:31:44;;;;;;;39.20;14.77;;;;;;;5.82;100.00;99836.84;5028206;28;20085;-67
2021/12/14 04:34:11;;;;;;;45.05;14.40;;;;;;;5.81;100.00;99824.56;5033346;28;20379;-67
2021/12/14 04:36:39;;;;;;;36.92;13.93;;;;;;;5.72;100.00;99825.28;5047394;28;20336;-67
2021/12/14 04:53:44;;;;;;;44.95;14.35;;;;;;;5.68;100.00;99806.91;5047363;28;20263;-67
2021/12/14 04:56:14;;;;;;;40.08;13.27;;;;;;;5.55;100.00;99799.69;5047158;28;20225;-67
2021/12/14 04:58:46;;;;;;;32.50;11.82;;;;;;;5.53;100.00;99790.94;5034465;28;20326;-67
2021/12/14 05:01:14;;;;;;;38.95;13.20;;;;;;;5.56;100.00;99804.97;5027254;28;20076;-67
2021/12/14 05:03:50;;;;;;;39.33;13.65;;;;;;;5.57;100.00;99804.09;5027429;28;20030;-67
2021/12/14 05:06:19;;;;;;;42.00;12.68;;;;;;;5.53;100.00;99811.84;5030609;28;20044;-67
2021/12/14 05:11:18;;;;;;;35.13;12.95;;;;;;;5.59;100.00;99811.97;5043487;28;20032;-65
2021/12/14 05:13:50;;;;;;;34.95;12.93;;;;;;;5.63;100.00;99830.31;5043452;28;20028;-65
2021/12/14 05:16:19;;;;;;;;;;;;;;;5.56;100.00;99838.00;5043890;28;20221;-65
2021/12/14 05:18:51;;;;;;;35.70;13.75;;;;;;;5.64;100.00;99836.44;5043239;28;20205;-65
2021/12/14 05:21:29;;;;;;;40.20;13.73;;;;;;;5.66;100.00;99835.63;5043403;28;20026;-65
2021/12/14 05:23:56;;;;;;;31.73;12.90;;;;;;;5.67;100.00;99836.50;5043372;28;20084;-65
2021/12/14 05:26:22;;;;;;;41.33;13.55;;;;;;;5.57;100.00;99813.69;5043369;28;20025;-65
2021/12/14 05:28:48;;;;;;;34.20;12.88;;;;;;;5.64;100.00;99818.16;5043297;28;20017;-65
2021/12/14 05:31:14;;;;;;;34.75;13.50;;;;;;;5.58;100.00;99799.75;5043251;28;20075;-65
2021/12/14 05:33:40;;;;;;;53.03;15.45;;;;;;;5.51;100.00;99784.84;5043259;28;20313;-65
2021/12/14 05:36:09;;;;;;;35.28;13.95;;;;;;;5.60;100.00;99777.19;5043235;28;20321;-65
2021/12/14 05:44:11;;;;;;;34.33;15.02;;;;;;;5.60;100.00;99766.72;5046741;28;20028;-65
2021/12/14 05:46:36;;;;;;;41.67;14.27;;;;;;;5.57;100.00;99777.13;5046614;28;20225;-65
2021/12/14 05:49:08;;;;;;;36.03;13.70;;;;;;;5.54;100.00;99787.50;5046649;28;20031;-65
2021/12/14 05:51:34;;;;;;;58.90;16.60;;;;;;;5.53;100.00;99783.13;5046901;28;20096;-65
2021/12/14 05:54:01;;;;;;;54.13;15.27;;;;;;;5.48;100.00;99787.38;5046529;28;20221;-65
2021/12/14 05:56:28;;;;;;;39.65;15.32;;;;;;;5.53;100.00;99785.72;5046492;28;20025;-65
2021/12/14 05:58:55;;;;;;;48.03;15.00;;;;;;;5.58;100.00;99784.09;5046345;28;20037;-65
2021/12/14 06:01:28;;;;;;;49.15;17.02;;;;;;;5.41;100.00;99795.97;5046408;28;20025;-65
2021/12/14 06:03:57;;;;;;;75.38;16.55;;;;;;;5.36;100.00;99801.09;5046322;28;20026;-65
2021/12/14 06:06:39;;;;;;;50.72;18.45;;;;;;;5.50;100.00;99790.88;5045157;28;20237;-65
2021/12/14 06:09:23;;;;;;;51.08;18.20;;;;;;;5.48;100.00;99782.16;5046035;28;20056;-65
2021/12/14 06:11:53;;;;;;;53.67;19.13;;;;;;;5.41;100.00;99785.53;5046528;28;20400;-65
2021/12/14 06:14:22;;;;;;;50.50;18.48;;;;;;;5.43;100.00;99778.56;5046396;28;20096;-65
2021/12/14 06:16:50;;;;;;;55.42;16.65;;;;;;;5.47;100.00;99785.63;5046095;28;20026;-65
2021/12/14 06:19:28;;;;;;;73.50;18.20;;;;;;;5.50;100.00;99785.66;5045876;28;20064;-66
2021/12/14 06:22:00;;;;;;;61.88;20.42;;;;;;;5.48;100.00;99783.06;5046054;28;20025;-66
2021/12/14 06:24:29;;;;;;;52.10;19.25;;;;;;;5.51;100.00;99790.91;5045923;28;20036;-66
2021/12/14 06:26:59;;;;;;;56.58;17.60;;;;;;;5.51;100.00;99797.91;5078154;28;20017;-66
2021/12/14 06:29:46;;;;;;;52.45;18.00;;;;;;;5.43;100.00;99807.28;5045933;28;20385;-66
2021/12/14 06:32:38;;;;;;;56.83;19.25;;;;;;;5.44;100.00;99822.13;5045761;28;20032;-66
2021/12/14 06:35:09;;;;;;;;;;;;;;;5.57;100.00;99865.91;5046531;28;20309;-65
2021/12/14 06:40:52;;;;;;;85.10;18.88;;;;;;;5.49;100.00;99857.03;5044724;28;20136;-65
2021/12/14 06:43:59;;;;;;;38.88;17.02;;;;;;;5.50;100.00;99858.78;5045711;28;20021;-65
2021/12/14 06:46:24;;;;;;;41.95;16.92;;;;;;;5.51;100.00;99864.03;5024006;28;20033;-65
2021/12/14 06:48:53;;;;;;;37.28;14.48;;;;;;;5.54;100.00;99871.06;5024029;28;20094;-65
2021/12/14 06:51:22;;;;;;;44.92;16.45;;;;;;;5.52;100.00;99873.66;5023985;28;20033;-65
2021/12/14 06:53:53;;;;;;;41.67;15.90;;;;;;;5.56;100.00;99858.91;5023781;28;20045;-65
2021/12/14 06:56:22;;;;;;;46.90;15.25;;;;;;;5.59;100.00;99849.41;5023945;28;20052;-65
2021/12/14 06:58:56;;;;;;;42.17;15.15;;;;;;;5.58;100.00;99852.00;5023760;28;20437;-65
2021/12/14 07:01:25;;;;;;;36.83;15.07;;;;;;;5.50;100.00;99848.34;5023840;28;20345;-65
2021/12/14 07:04:01;;;;;;;39.47;15.70;;;;;;;5.53;100.00;99864.06;5023736;28;20092;-65
2021/12/14 07:06:29;;;;;;;40.20;15.65;;;;;;;5.54;100.00;99876.28;5023687;28;20088;-65
2021/12/14 07:09:08;;;;;;;33.90;14.13;;;;;;;5.49;100.00;99868.38;5023632;28;20064;-65
2021/12/14 07:11:35;;;;;;;52.03;17.13;;;;;;;5.44;100.00;99853.47;5023623;28;20034;-65
2021/12/14 07:14:02;;;;;;;61.40;15.63;;;;;;;5.39;100.00;99842.03;5023485;28;20061;-65
2021/12/14 07:16:32;;;;;;;52.88;15.40;;;;;;;5.45;100.00;99855.22;5023496;28;20037;-65
2021/12/14 07:19:05;;;;;;;51.72;16.50;;;;;;;5.46;100.00;99880.47;5023217;28;20088;-65
2021/12/14 07:21:38;;;;;;;;;;;;;;;5.49;100.00;99877.91;5044996;28;20044;-65
2021/12/14 07:24:29;;;;;;;44.78;15.15;;;;;;;5.47;100.00;99869.19;5045093;28;19905;-65
2021/12/14 07:27:24;;;;;;;35.53;13.82;;;;;;;5.43;100.00;99867.34;5044830;28;20028;-65
2021/12/14 07:29:51;;;;;;;49.92;14.68;;;;;;;5.42;100.00;99870.81;5044819;28;20221;-65
2021/12/14 07:32:47;;;;;;;47.60;15.27;;;;;;;5.46;100.00;99888.28;5044687;28;20265;-65
2021/12/14 07:35:19;;;;;;;40.65;14.98;;;;;;;5.38;100.00;99885.53;5044647;28;20344;-65
2021/12/14 07:37:44;;;;;;;;;;;;;;;5.43;100.00;99883.91;5044979;28;20030;-65
2021/12/14 07:40:12;;;;;;;37.97;13.32;;;;;;;5.45;100.00;99887.44;5044550;28;19950;-65
2021/12/14 07:42:39;;;;;;;42.83;15.68;;;;;;;5.45;100.00;99881.31;5044454;28;20029;-65
2021/12/14 07:45:06;;;;;;;31.85;13.30;;;;;;;5.45;100.00;99891.78;5044465;28;20029;-65
2021/12/14 07:47:32;;;;;;;38.50;13.15;;;;;;;5.43;100.00;99894.34;5044416;28;20025;-65
2021/12/14 07:49:59;;;;;;;42.00;13.98;;;;;;;5.50;100.00;99901.44;5044376;28;20029;-65
2021/12/14 07:52:30;;;;;;;37.20;13.23;;;;;;;5.51;100.00;99902.34;5044344;28;20135;-65
2021/12/14 07:55:05;;;;;;;32.15;12.70;;;;;;;5.51;100.00;99907.56;5044362;28;20049;-65
2021/12/14 07:57:34;;;;;;;32.53;12.65;;;;;;;5.57;100.00;99907.69;5044226;28;20033;-65
2021/12/14 08:00:13;;;;;;;29.15;11.02;;;;;;;5.58;100.00;99909.44;5044240;28;20401;-65
2021/12/14 08:02:42;;;;;;;33.65;13.05;;;;;;;5.60;100.00;99912.97;5051518;28;20029;-65
2021/12/14 08:05:33;;;;;;;35.17;12.73;;;;;;;5.51;100.00;99902.34;5052038;28;20021;-65
2021/12/14 08:08:06;;;;;;;34.85;12.70;;;;;;;5.59;100.00;99911.19;5052674;28;20022;-65
2021/12/14 08:10:37;;;;;;;33.30;13.07;;;;;;;5.56;100.00;99908.53;5050680;28;20032;-65
2021/12/14 08:13:13;;;;;;;37.33;12.68;;;;;;;5.65;100.00;99911.31;5053759;28;20309;-65
2021/12/14 08:15:53;;;;;;;30.67;12.63;;;;;;;5.61;100.00;99909.50;5056358;28;20070;-65
2021/12/14 08:18:34;;;;;;;32.20;13.93;;;;;;;5.57;100.00;99920.75;5062666;28;20108;-65
2021/12/14 08:21:04;;;;;;;30.77;13.32;;;;;;;5.57;100.00;99920.75;5062123;28;20099;-65
2021/12/14 08:23:37;;;;;;;35.42;14.65;;;;;;;5.61;100.00;99907.78;5043020;28;20071;-65
2021/12/14 08:26:05;;;;;;;45.45;15.98;;;;;;;5.60;100.00;99918.22;5042983;28;20033;-65
2021/12/14 08:28:31;;;;;;;40.55;15.18;;;;;;;5.61;100.00;99909.50;5042549;28;20021;-65
2021/12/14 08:31:05;;;;;;;35.58;14.55;;;;;;;5.62;100.00;99913.88;5055325;28;20066;-65
2021/12/14 08:33:32;;;;;;;34.22;14.18;;;;;;;5.60;100.00;99915.59;5062852;28;20320;-65
2021/12/14 08:36:03;;;;;;;29.73;12.98;;;;;;;5.64;100.00;99925.25;5061921;28;20020;-65
2021/12/14 08:38:32;;;;;;;30.80;12.63;;;;;;;5.62;100.00;99916.47;5047328;28;20191;-66
2021/12/14 08:41:07;;;;;;;24.55;10.57;;;;;;;5.59;100.00;99921.66;5043685;28;20080;-66
2021/12/14 08:43:34;;;;;;;28.98;11.88;;;;;;;5.48;100.00;99923.16;5043954;28;20267;-66
2021/12/14 08:46:07;;;;;;;32.63;12.10;;;;;;;5.55;100.00;99930.28;5043623;28;20048;-65
2021/12/14 08:48:42;;;;;;;36.25;11.98;;;;;;;5.55;100.00;99928.56;5043579;28;20053;-65
2021/12/14 08:51:22;;;;;;;31.02;12.85;;;;;;;5.62;100.00;99932.16;5043663;28;20070;-65
2021/12/14 08:53:56;;;;;;;24.25;10.68;;;;;;;5.66;100.00;99944.47;5043502;28;20025;-65
2021/12/14 08:56:25;;;;;;;28.52;11.75;;;;;;;5.72;100.00;99945.44;5043650;28;20191;-65
2021/12/14 08:58:51;;;;;;;34.72;12.80;;;;;;;5.70;100.00;99938.44;5043543;28;20029;-65
2021/12/14 09:01:22;;;;;;;30.33;11.50;;;;;;;5.67;100.00;99943.59;5043591;28;20240;-65
2021/12/14 09:03:54;;;;;;;34.95;11.43;;;;;;;5.64;100.00;99944.44;5043461;28;20034;-65
2021/12/14 09:06:25;;;;;;;29.40;11.80;;;;;;;5.64;100.00;99951.38;5043855;28;20044;-65
2021/12/14 09:08:52;;;;;;;34.15;11.85;;;;;;;5.68;100.00;99956.69;5043853;28;20029;-65
2021/12/14 09:11:22;;;;;;;34.13;12.55;;;;;;;5.75;100.00;99957.69;5043456;28;20029;-65
2021/12/14 09:13:47;;;;;;;32.13;10.27;;;;;;;5.70;100.00;99956.72;5043450;28;20021;-65
2021/12/14 09:16:26;;;;;;;32.00;11.27;;;;;;;5.69;100.00;99966.28;5043562;28;20030;-65
2021/12/14 09:18:57;;;;;;;37.13;9.95;;;;;;;5.75;100.00;99975.97;5047061;28;20030;-65
2021/12/14 09:21:28;;;;;;;35.97;11.73;;;;;;;5.73;100.00;99975.06;5047206;28;20217;-65
2021/12/14 09:23:58;;;;;;;30.50;11.98;;;;;;;5.73;100.00;99978.53;5047186;28;20099;-65
2021/12/14 09:26:27;;;;;;;36.03;12.15;;;;;;;5.74;100.00;99976.81;5047355;28;20035;-65
2021/12/14 09:28:52;;;;;;;32.03;11.80;;;;;;;5.76;100.00;99973.38;5047033;28;20025;-65
2021/12/14 09:31:21;;;;;;;39.60;11.70;;;;;;;5.76;100.00;99967.31;5046968;28;20362;-65
2021/12/14 09:33:49;;;;;;;26.50;10.77;;;;;;;5.81;100.00;99966.56;5046918;28;20076;-65
2021/12/14 09:36:15;;;;;;;40.92;11.32;;;;;;;5.80;100.00;99964.78;5045750;28;20236;-65
2021/12/14 09:38:50;;;;;;;31.77;10.75;;;;;;;5.89;100.00;99969.34;5046083;28;20092;-65
2021/12/14 09:41:21;;;;;;;22.60;9.10;;;;;;;5.95;100.00;99954.66;5046827;28;20270;-65
2021/12/14 09:43:48;;;;;;;24.40;8.82;;;;;;;5.97;100.00;99973.88;5046691;28;20031;-65
2021/12/14 09:46:15;;;;;;;27.40;10.38;;;;;;;6.01;100.00;99967.00;5046957;28;20029;-65
2021/12/14 09:48:45;;;;;;;32.42;9.63;;;;;;;6.10;100.00;99964.53;5046671;28;20033;-65
2021/12/14 09:51:16;;;;;;;28.73;11.30;;;;;;;6.19;100.00;99969.94;5046712;28;20049;-65
2021/12/14 09:53:47;;;;;;;20.80;9.52;;;;;;;6.18;100.00;99976.91;5046606;28;20033;-65
2021/12/14 09:56:16;;;;;;;31.88;8.57;;;;;;;6.17;100.00;99966.44;5046844;28;20088;-65
2021/12/14 09:58:46;;;;;;;47.55;8.80;;;;;;;6.03;100.00;99962.66;5046443;28;20026;-65
2021/12/14 10:01:18;;;;;;;25.13;8.50;;;;;;;6.07;100.00;99964.47;5046561;28;20033;-65
2021/12/14 10:03:49;;;;;;;27.05;8.85;;;;;;;6.09;100.00;99968.00;5046388;28;20035;-65
2021/12/14 10:06:18;;;;;;;21.13;8.77;;;;;;;6.09;100.00;99968.91;5046425;28;20021;-65
2021/12/14 10:08:51;;;;;;;18.70;8.75;;;;;;;6.08;100.00;99967.09;5046076;28;20378;-65
2021/12/14 10:11:34;;;;;;;21.63;8.38;;;;;;;6.10;100.00;99969.75;5046474;28;20028;-66
2021/12/14 10:14:05;;;;;;;20.55;8.07;;;;;;;6.15;100.00;99969.00;5045673;28;20317;-65
2021/12/14 10:16:32;;;;;;;18.80;7.43;;;;;;;6.19;100.00;99976.06;5063145;28;20029;-65
2021/12/14 10:19:06;;;;;;;18.15;7.15;;;;;;;6.22;100.00;99970.00;5045952;28;20053;-65
2021/12/14 10:21:41;;;;;;;26.25;9.23;;;;;;;6.29;100.00;99964.91;5045248;28;20386;-65
2021/12/14 10:24:07;;;;;;;22.10;8.00;;;;;;;6.36;100.00;99963.31;5045111;28;20025;-65
2021/12/14 10:26:37;;;;;;;20.45;6.97;;;;;;;6.33;100.00;99951.03;5045041;28;20032;-65
2021/12/14 10:29:04;;;;;;;21.55;8.10;;;;;;;6.39;100.00;99951.16;5044464;28;20029;-65
2021/12/14 10:31:40;;;;;;;21.35;9.02;;;;;;;6.38;100.00;99941.56;5044930;28;20086;-65
2021/12/14 10:34:10;;;;;;;22.30;9.20;;;;;;;6.48;100.00;99945.19;5045163;28;20021;-65
2021/12/14 10:36:42;;;;;;;21.83;9.45;;;;;;;6.51;100.00;99945.25;5055404;28;20328;-65
2021/12/14 10:44:37;;;;;;;25.63;10.00;;;;;;;6.56;100.00;99941.00;5064691;28;20209;-66
2021/12/14 10:47:05;;;;;;;25.67;10.73;;;;;;;6.56;100.00;99935.75;5064938;28;20036;-66
2021/12/14 10:49:30;;;;;;;25.02;10.40;;;;;;;6.52;100.00;99940.06;5063644;28;20028;-66
2021/12/14 10:52:00;;;;;;;26.63;10.80;;;;;;;6.55;100.00;99945.34;5064517;28;20025;-65
2021/12/14 10:54:27;;;;;;;23.88;10.15;;;;;;;6.51;100.00;99947.88;5064467;28;20021;-65
2021/12/14 10:57:00;;;;;;;26.55;9.70;;;;;;;6.58;100.00;99952.34;5064414;28;20029;-65
2021/12/14 10:59:30;;;;;;;21.85;10.23;;;;;;;6.54;99.95;99948.81;5064284;28;20063;-65
2021/12/14 11:01:56;;;;;;;26.40;11.52;;;;;;;6.64;99.93;99949.84;5058659;28;20102;-65
2021/12/14 11:04:34;;;;;;;27.33;11.90;;;;;;;6.58;100.00;99955.84;5055064;28;20316;-65
2021/12/14 11:07:01;;;;;;;29.77;12.93;;;;;;;6.59;99.99;99959.34;5054704;28;20013;-65
2021/12/14 11:12:17;;;;;;;21.00;9.63;;;;;;;6.56;99.75;99957.53;5053732;28;20025;-65
2021/12/14 11:14:44;;;;;;;19.77;10.60;;;;;;;6.53;100.00;99948.78;5053011;28;20025;-65
2021/12/14 11:20:03;;;;;;;23.20;10.50;;;;;;;6.39;100.00;99955.50;5055246;28;20093;-65
2021/12/14 11:22:40;;;;;;;21.52;10.88;;;;;;;6.39;99.83;99960.72;5050606;28;20017;-65
2021/12/14 11:25:13;;;;;;;21.88;10.25;;;;;;;6.39;99.61;99968.56;5051225;28;20070;-65
2021/12/14 11:27:47;;;;;;;20.80;10.15;;;;;;;6.45;99.89;99966.06;5063475;28;20358;-65
2021/12/14 11:30:28;;;;;;;22.05;11.13;;;;;;;6.53;99.35;99969.72;5059115;28;20021;-65
2021/12/14 11:33:16;;;;;;;24.30;12.55;;;;;;;6.49;99.09;99980.97;5044743;28;20309;-65
2021/12/14 11:36:07;;;;;;;24.90;12.63;;;;;;;6.51;99.07;99984.47;5044900;28;20032;-65
2021/12/14 11:38:38;;;;;;;23.70;11.82;;;;;;;6.50;98.58;99967.03;5044430;28;20024;-65
2021/12/14 11:41:23;;;;;;;22.38;10.48;;;;;;;6.40;98.56;99965.13;5043441;28;20099;-65
2021/12/14 11:43:56;;;;;;;21.95;11.32;;;;;;;6.43;99.01;99965.19;5043563;28;20106;-65
2021/12/14 11:46:23;;;;;;;24.98;12.20;;;;;;;6.34;99.07;99965.91;5044519;28;20033;-65
2021/12/14 11:48:48;;;;;;;25.63;12.55;;;;;;;6.34;98.63;99965.00;5044453;28;20032;-65
2021/12/14 11:51:14;;;;;;;31.10;15.68;;;;;;;6.33;98.84;99960.63;5044404;28;20324;-65
2021/12/14 11:53:49;;;;;;;30.98;14.80;;;;;;;6.25;98.55;99951.75;5044381;28;20056;-65
2021/12/14 11:56:19;;;;;;;27.70;14.63;;;;;;;6.22;99.08;99949.97;5044360;28;20097;-65
2021/12/14 11:58:55;;;;;;;28.95;14.95;;;;;;;6.25;99.30;99951.75;5044255;28;20032;-65
2021/12/14 12:01:28;;;;;;;31.17;15.25;;;;;;;6.28;99.25;99962.28;5044529;28;20025;-65
2021/12/14 12:03:59;;;;;;;28.30;13.88;;;;;;;6.29;99.26;99961.41;5044139;28;20025;-65
2021/12/14 12:09:29;;;;;;;27.63;13.68;;;;;;;6.33;99.35;99958.03;5044179;28;20249;-65
2021/12/14 12:12:06;;;;;;;26.45;14.75;;;;;;;6.34;99.91;99950.22;5044088;28;20128;-65
2021/12/14 12:15:04;;;;;;;32.00;15.55;;;;;;;6.26;100.00;99953.50;5044057;28;20084;-65
2021/12/14 12:17:56;;;;;;;32.97;15.30;;;;;;;6.28;99.80;99943.97;5043783;28;20098;-65
2021/12/14 12:20:34;;;;;;;32.80;14.07;;;;;;;6.30;99.36;99944.88;5044301;28;20035;-65
2021/12/14 12:23:16;;;;;;;32.40;15.02;;;;;;;6.32;99.28;99938.81;5044019;28;20363;-65
2021/12/14 12:26:09;;;;;;;38.35;15.77;;;;;;;6.18;99.62;99926.34;5044009;28;20025;-65